Crews, Texas
Current Conditions -  °F | °C
As of 1:58 AM on Monday 24 Nov 2014 (Local Time) from KDYS Reporting Station
Clear Clear  
Wind Chill:   Ceiling: Unl
Heat Index:   Visibility: 10mi
Dew Point:   Wind: 6mph
Humidity: 74%   Direction: 270°W
Pressure: 29.96"   Gusts: NA
Location:  31.975°N, 99.9034°W
Report Text: KDYS 240758Z AUTO 27005KT 10SM CLR 05/01 A2996 RMK AO2 SLP128 T00540011 $
Loading
Personal Weather Stations






























Interactive Weather Map New forecast layout! Learn more

10-Day Weather Forecast

Advertisements
Track Severe Weather on mobile